sensor_id;sensor_type;location;lat;lon;timestamp;temperature;humidity
63219;DHT22;49320;52.512;13.448;2023-06-26T00:02:16;24.20;77.80
63219;DHT22;49320;52.512;13.448;2023-06-26T00:04:44;24.20;78.00
63219;DHT22;49320;52.512;13.448;2023-06-26T00:07:11;24.20;78.30
63219;DHT22;49320;52.512;13.448;2023-06-26T00:09:38;24.20;78.40
63219;DHT22;49320;52.512;13.448;2023-06-26T00:12:05;24.20;78.70
63219;DHT22;49320;52.512;13.448;2023-06-26T00:14:32;24.10;78.90
63219;DHT22;49320;52.512;13.448;2023-06-26T00:16:59;24.10;79.00
63219;DHT22;49320;52.512;13.448;2023-06-26T00:19:26;24.10;79.20
63219;DHT22;49320;52.512;13.448;2023-06-26T00:21:53;24.10;79.40
63219;DHT22;49320;52.512;13.448;2023-06-26T00:24:20;24.00;79.60
63219;DHT22;49320;52.512;13.448;2023-06-26T00:26:47;24.00;79.80
63219;DHT22;49320;52.512;13.448;2023-06-26T00:29:14;24.00;80.10
63219;DHT22;49320;52.512;13.448;2023-06-26T00:34:08;24.00;79.80
63219;DHT22;49320;52.512;13.448;2023-06-26T00:36:35;24.00;80.60
63219;DHT22;49320;52.512;13.448;2023-06-26T00:39:02;24.00;80.70
63219;DHT22;49320;52.512;13.448;2023-06-26T00:41:29;23.90;80.80
63219;DHT22;49320;52.512;13.448;2023-06-26T00:43:56;23.90;81.00
63219;DHT22;49320;52.512;13.448;2023-06-26T00:46:23;23.90;81.10
63219;DHT22;49320;52.512;13.448;2023-06-26T00:48:52;23.90;81.30
63219;DHT22;49320;52.512;13.448;2023-06-26T00:51:20;23.90;81.60
63219;DHT22;49320;52.512;13.448;2023-06-26T00:53:47;23.90;81.70
63219;DHT22;49320;52.512;13.448;2023-06-26T00:56:15;23.90;81.80
63219;DHT22;49320;52.512;13.448;2023-06-26T00:58:44;23.80;81.90
63219;DHT22;49320;52.512;13.448;2023-06-26T01:01:12;23.80;82.10
63219;DHT22;49320;52.512;13.448;2023-06-26T01:03:44;23.80;82.30
63219;DHT22;49320;52.512;13.448;2023-06-26T01:06:14;23.80;82.50
63219;DHT22;49320;52.512;13.448;2023-06-26T01:08:42;23.80;82.70
63219;DHT22;49320;52.512;13.448;2023-06-26T01:11:11;24.00;83.00
63219;DHT22;49320;52.512;13.448;2023-06-26T01:13:39;23.80;83.00
63219;DHT22;49320;52.512;13.448;2023-06-26T01:16:09;23.80;83.20
63219;DHT22;49320;52.512;13.448;2023-06-26T01:18:38;23.80;83.40
63219;DHT22;49320;52.512;13.448;2023-06-26T01:21:09;23.80;83.40
63219;DHT22;49320;52.512;13.448;2023-06-26T01:23:49;23.70;83.50
63219;DHT22;49320;52.512;13.448;2023-06-26T01:26:39;24.20;83.90
63219;DHT22;49320;52.512;13.448;2023-06-26T01:29:07;23.90;83.90
63219;DHT22;49320;52.512;13.448;2023-06-26T01:31:37;23.90;84.00
63219;DHT22;49320;52.512;13.448;2023-06-26T01:34:04;24.00;84.20
63219;DHT22;49320;52.512;13.448;2023-06-26T01:36:32;24.00;84.20
63219;DHT22;49320;52.512;13.448;2023-06-26T01:38:59;24.00;84.20
63219;DHT22;49320;52.512;13.448;2023-06-26T01:41:26;23.90;84.20
63219;DHT22;49320;52.512;13.448;2023-06-26T01:46:58;23.90;84.20
63219;DHT22;49320;52.512;13.448;2023-06-26T01:52:32;23.90;84.50
63219;DHT22;49320;52.512;13.448;2023-06-26T01:55:28;23.90;84.50
63219;DHT22;49320;52.512;13.448;2023-06-26T01:58:03;23.90;84.60
63219;DHT22;49320;52.512;13.448;2023-06-26T02:00:31;23.90;84.70
63219;DHT22;49320;52.512;13.448;2023-06-26T02:02:59;23.80;84.80
63219;DHT22;49320;52.512;13.448;2023-06-26T02:05:26;23.80;85.00
63219;DHT22;49320;52.512;13.448;2023-06-26T02:07:53;23.80;85.10
63219;DHT22;49320;52.512;13.448;2023-06-26T02:10:20;23.80;85.20
63219;DHT22;49320;52.512;13.448;2023-06-26T02:12:47;23.80;85.30
63219;DHT22;49320;52.512;13.448;2023-06-26T02:15:14;23.70;85.30
63219;DHT22;49320;52.512;13.448;2023-06-26T02:17:40;23.70;86.10
63219;DHT22;49320;52.512;13.448;2023-06-26T02:20:08;23.70;85.40
63219;DHT22;49320;52.512;13.448;2023-06-26T02:22:36;23.70;85.60
63219;DHT22;49320;52.512;13.448;2023-06-26T02:25:03;23.70;85.70
63219;DHT22;49320;52.512;13.448;2023-06-26T02:27:31;23.70;85.90
63219;DHT22;49320;52.512;13.448;2023-06-26T02:29:58;23.70;86.00
63219;DHT22;49320;52.512;13.448;2023-06-26T02:32:25;23.70;86.10
63219;DHT22;49320;52.512;13.448;2023-06-26T02:34:51;23.70;86.10
63219;DHT22;49320;52.512;13.448;2023-06-26T02:37:18;23.60;86.20
63219;DHT22;49320;52.512;13.448;2023-06-26T02:39:45;23.60;86.30
63219;DHT22;49320;52.512;13.448;2023-06-26T02:42:12;23.50;86.30
63219;DHT22;49320;52.512;13.448;2023-06-26T02:44:39;23.60;86.60
63219;DHT22;49320;52.512;13.448;2023-06-26T02:47:06;23.60;86.70
63219;DHT22;49320;52.512;13.448;2023-06-26T02:49:33;23.60;86.80
63219;DHT22;49320;52.512;13.448;2023-06-26T02:51:59;23.60;86.90
63219;DHT22;49320;52.512;13.448;2023-06-26T02:54:26;23.50;87.00
63219;DHT22;49320;52.512;13.448;2023-06-26T02:56:53;23.50;87.10
63219;DHT22;49320;52.512;13.448;2023-06-26T02:59:20;23.50;87.30
63219;DHT22;49320;52.512;13.448;2023-06-26T03:01:47;23.50;87.50
63219;DHT22;49320;52.512;13.448;2023-06-26T03:04:14;23.50;87.60
63219;DHT22;49320;52.512;13.448;2023-06-26T03:06:42;23.50;87.70
63219;DHT22;49320;52.512;13.448;2023-06-26T03:09:08;23.50;87.70
63219;DHT22;49320;52.512;13.448;2023-06-26T03:11:35;23.60;88.10
63219;DHT22;49320;52.512;13.448;2023-06-26T03:14:02;23.50;87.90
63219;DHT22;49320;52.512;13.448;2023-06-26T03:16:29;23.40;88.00
63219;DHT22;49320;52.512;13.448;2023-06-26T03:18:56;23.70;88.30
63219;DHT22;49320;52.512;13.448;2023-06-26T03:21:22;23.40;88.30
63219;DHT22;49320;52.512;13.448;2023-06-26T03:23:49;23.30;88.40
63219;DHT22;49320;52.512;13.448;2023-06-26T03:26:16;24.20;89.00
63219;DHT22;49320;52.512;13.448;2023-06-26T03:28:43;23.40;88.70
63219;DHT22;49320;52.512;13.448;2023-06-26T03:31:10;23.40;88.90
63219;DHT22;49320;52.512;13.448;2023-06-26T03:33:37;23.30;89.00
63219;DHT22;49320;52.512;13.448;2023-06-26T03:36:04;23.30;89.10
63219;DHT22;49320;52.512;13.448;2023-06-26T03:38:32;23.20;89.20
63219;DHT22;49320;52.512;13.448;2023-06-26T03:40:59;23.30;89.30
63219;DHT22;49320;52.512;13.448;2023-06-26T03:43:26;23.30;89.30
63219;DHT22;49320;52.512;13.448;2023-06-26T03:45:53;23.30;89.40
63219;DHT22;49320;52.512;13.448;2023-06-26T03:48:20;23.30;89.50
63219;DHT22;49320;52.512;13.448;2023-06-26T03:50:47;23.30;89.50
63219;DHT22;49320;52.512;13.448;2023-06-26T03:53:14;23.30;89.60
63219;DHT22;49320;52.512;13.448;2023-06-26T03:55:40;23.30;89.60
63219;DHT22;49320;52.512;13.448;2023-06-26T03:58:07;23.40;89.70
63219;DHT22;49320;52.512;13.448;2023-06-26T04:00:34;23.40;89.60
63219;DHT22;49320;52.512;13.448;2023-06-26T04:03:01;23.40;89.60
63219;DHT22;49320;52.512;13.448;2023-06-26T04:05:29;23.50;89.60
63219;DHT22;49320;52.512;13.448;2023-06-26T04:07:56;23.60;89.50
63219;DHT22;49320;52.512;13.448;2023-06-26T04:10:23;23.60;89.40
63219;DHT22;49320;52.512;13.448;2023-06-26T04:12:50;23.70;89.30
63219;DHT22;49320;52.512;13.448;2023-06-26T04:15:17;23.80;89.20
63219;DHT22;49320;52.512;13.448;2023-06-26T04:17:44;23.80;89.10
63219;DHT22;49320;52.512;13.448;2023-06-26T04:20:11;24.00;88.90
63219;DHT22;49320;52.512;13.448;2023-06-26T04:22:37;24.00;88.70
63219;DHT22;49320;52.512;13.448;2023-06-26T04:25:05;24.10;88.50
63219;DHT22;49320;52.512;13.448;2023-06-26T04:27:32;24.20;88.30
63219;DHT22;49320;52.512;13.448;2023-06-26T04:30:02;24.30;88.20
63219;DHT22;49320;52.512;13.448;2023-06-26T04:32:29;24.30;87.80
63219;DHT22;49320;52.512;13.448;2023-06-26T04:34:56;24.40;87.50
63219;DHT22;49320;52.512;13.448;2023-06-26T04:37:23;24.40;87.30
63219;DHT22;49320;52.512;13.448;2023-06-26T04:39:51;24.50;87.20
63219;DHT22;49320;52.512;13.448;2023-06-26T04:42:18;24.60;86.90
63219;DHT22;49320;52.512;13.448;2023-06-26T04:44:45;24.60;86.60
63219;DHT22;49320;52.512;13.448;2023-06-26T04:47:12;24.70;86.50
63219;DHT22;49320;52.512;13.448;2023-06-26T04:49:41;24.80;86.30
63219;DHT22;49320;52.512;13.448;2023-06-26T04:52:13;24.80;86.30
63219;DHT22;49320;52.512;13.448;2023-06-26T04:54:40;24.90;85.90
63219;DHT22;49320;52.512;13.448;2023-06-26T04:57:07;24.90;85.60
63219;DHT22;49320;52.512;13.448;2023-06-26T04:59:35;24.80;85.40
63219;DHT22;49320;52.512;13.448;2023-06-26T05:02:02;25.00;85.30
63219;DHT22;49320;52.512;13.448;2023-06-26T05:04:29;25.10;85.10
63219;DHT22;49320;52.512;13.448;2023-06-26T05:06:56;25.20;85.00
63219;DHT22;49320;52.512;13.448;2023-06-26T05:09:23;25.20;84.70
63219;DHT22;49320;52.512;13.448;2023-06-26T05:11:50;25.30;84.60
63219;DHT22;49320;52.512;13.448;2023-06-26T05:14:17;25.40;84.30
63219;DHT22;49320;52.512;13.448;2023-06-26T05:16:44;25.40;83.70
63219;DHT22;49320;52.512;13.448;2023-06-26T05:19:11;25.60;83.40
63219;DHT22;49320;52.512;13.448;2023-06-26T05:21:38;25.70;82.80
63219;DHT22;49320;52.512;13.448;2023-06-26T05:24:06;25.90;82.60
63219;DHT22;49320;52.512;13.448;2023-06-26T05:26:34;26.00;82.20
63219;DHT22;49320;52.512;13.448;2023-06-26T05:29:02;26.20;81.80
63219;DHT22;49320;52.512;13.448;2023-06-26T05:31:31;26.30;81.40
63219;DHT22;49320;52.512;13.448;2023-06-26T05:34:03;26.40;80.40
63219;DHT22;49320;52.512;13.448;2023-06-26T05:36:31;26.60;79.40
63219;DHT22;49320;52.512;13.448;2023-06-26T05:39:00;26.60;79.20
63219;DHT22;49320;52.512;13.448;2023-06-26T05:41:27;26.80;78.80
63219;DHT22;49320;52.512;13.448;2023-06-26T05:43:55;26.90;78.10
63219;DHT22;49320;52.512;13.448;2023-06-26T05:46:22;27.00;77.60
63219;DHT22;49320;52.512;13.448;2023-06-26T05:48:49;27.10;77.00
63219;DHT22;49320;52.512;13.448;2023-06-26T05:51:16;27.20;76.40
63219;DHT22;49320;52.512;13.448;2023-06-26T05:53:43;27.20;75.70
63219;DHT22;49320;52.512;13.448;2023-06-26T05:56:10;27.30;75.30
63219;DHT22;49320;52.512;13.448;2023-06-26T05:58:38;27.30;75.00
63219;DHT22;49320;52.512;13.448;2023-06-26T06:01:05;27.40;74.80
63219;DHT22;49320;52.512;13.448;2023-06-26T06:03:31;27.50;74.60
63219;DHT22;49320;52.512;13.448;2023-06-26T06:05:58;27.50;74.10
63219;DHT22;49320;52.512;13.448;2023-06-26T06:08:25;27.70;73.60
63219;DHT22;49320;52.512;13.448;2023-06-26T06:10:52;27.90;73.00
63219;DHT22;49320;52.512;13.448;2023-06-26T06:13:19;27.90;72.30
63219;DHT22;49320;52.512;13.448;2023-06-26T06:15:46;28.10;72.30
63219;DHT22;49320;52.512;13.448;2023-06-26T06:18:13;28.10;71.70
63219;DHT22;49320;52.512;13.448;2023-06-26T06:20:40;28.20;71.00
63219;DHT22;49320;52.512;13.448;2023-06-26T06:23:07;28.40;70.40
63219;DHT22;49320;52.512;13.448;2023-06-26T06:25:34;28.40;69.80
63219;DHT22;49320;52.512;13.448;2023-06-26T06:28:01;28.50;69.50
63219;DHT22;49320;52.512;13.448;2023-06-26T06:30:28;28.60;69.00
63219;DHT22;49320;52.512;13.448;2023-06-26T06:33:01;28.60;68.70
63219;DHT22;49320;52.512;13.448;2023-06-26T06:35:28;28.70;68.20
63219;DHT22;49320;52.512;13.448;2023-06-26T06:37:56;28.70;68.00
63219;DHT22;49320;52.512;13.448;2023-06-26T06:40:23;29.00;66.00
63219;DHT22;49320;52.512;13.448;2023-06-26T06:42:51;29.00;67.50
63219;DHT22;49320;52.512;13.448;2023-06-26T06:45:18;29.10;67.10
63219;DHT22;49320;52.512;13.448;2023-06-26T06:47:45;29.10;66.50
63219;DHT22;49320;52.512;13.448;2023-06-26T06:50:11;29.30;66.30
63219;DHT22;49320;52.512;13.448;2023-06-26T06:52:39;29.40;66.00
63219;DHT22;49320;52.512;13.448;2023-06-26T06:55:07;29.40;64.80
63219;DHT22;49320;52.512;13.448;2023-06-26T06:57:39;29.60;64.20
63219;DHT22;49320;52.512;13.448;2023-06-26T07:00:10;29.60;63.40
63219;DHT22;49320;52.512;13.448;2023-06-26T07:02:40;29.70;62.90
63219;DHT22;49320;52.512;13.448;2023-06-26T07:05:08;29.70;62.70
63219;DHT22;49320;52.512;13.448;2023-06-26T07:07:36;29.80;62.40
63219;DHT22;49320;52.512;13.448;2023-06-26T07:10:06;29.80;61.80
63219;DHT22;49320;52.512;13.448;2023-06-26T07:12:36;29.80;61.00
63219;DHT22;49320;52.512;13.448;2023-06-26T07:15:04;29.80;61.20
63219;DHT22;49320;52.512;13.448;2023-06-26T07:17:33;29.90;60.80
63219;DHT22;49320;52.512;13.448;2023-06-26T07:20:01;29.90;60.60
63219;DHT22;49320;52.512;13.448;2023-06-26T07:22:34;29.90;60.60
63219;DHT22;49320;52.512;13.448;2023-06-26T07:25:01;29.90;60.70
63219;DHT22;49320;52.512;13.448;2023-06-26T07:27:28;29.80;60.60
63219;DHT22;49320;52.512;13.448;2023-06-26T07:29:55;29.90;60.60
63219;DHT22;49320;52.512;13.448;2023-06-26T07:32:22;29.90;60.10
63219;DHT22;49320;52.512;13.448;2023-06-26T07:34:49;29.90;60.10
63219;DHT22;49320;52.512;13.448;2023-06-26T07:37:16;29.90;60.00
63219;DHT22;49320;52.512;13.448;2023-06-26T07:39:42;30.00;60.00
63219;DHT22;49320;52.512;13.448;2023-06-26T07:42:09;30.00;60.00
63219;DHT22;49320;52.512;13.448;2023-06-26T07:44:36;29.90;59.80
63219;DHT22;49320;52.512;13.448;2023-06-26T07:47:03;30.00;59.50
63219;DHT22;49320;52.512;13.448;2023-06-26T07:49:31;30.10;59.40
63219;DHT22;49320;52.512;13.448;2023-06-26T07:51:58;30.10;59.30
63219;DHT22;49320;52.512;13.448;2023-06-26T07:54:25;30.10;59.30
63219;DHT22;49320;52.512;13.448;2023-06-26T07:57:04;30.10;59.30
63219;DHT22;49320;52.512;13.448;2023-06-26T07:59:35;30.20;57.90
63219;DHT22;49320;52.512;13.448;2023-06-26T08:02:02;30.20;59.00
63219;DHT22;49320;52.512;13.448;2023-06-26T08:04:29;30.30;59.10
63219;DHT22;49320;52.512;13.448;2023-06-26T08:06:59;30.30;58.80
63219;DHT22;49320;52.512;13.448;2023-06-26T08:09:28;30.30;58.60
63219;DHT22;49320;52.512;13.448;2023-06-26T08:11:56;30.40;58.60
63219;DHT22;49320;52.512;13.448;2023-06-26T08:14:24;30.40;58.40
63219;DHT22;49320;52.512;13.448;2023-06-26T08:16:51;30.40;58.30
63219;DHT22;49320;52.512;13.448;2023-06-26T08:19:18;30.50;58.20
63219;DHT22;49320;52.512;13.448;2023-06-26T08:21:46;30.60;58.10
63219;DHT22;49320;52.512;13.448;2023-06-26T08:24:13;30.70;57.70
63219;DHT22;49320;52.512;13.448;2023-06-26T08:26:44;30.70;57.50
63219;DHT22;49320;52.512;13.448;2023-06-26T08:29:11;30.80;57.50
63219;DHT22;49320;52.512;13.448;2023-06-26T08:31:42;30.70;57.10
63219;DHT22;49320;52.512;13.448;2023-06-26T08:34:09;30.90;56.60
63219;DHT22;49320;52.512;13.448;2023-06-26T08:36:36;30.90;56.80
63219;DHT22;49320;52.512;13.448;2023-06-26T08:39:03;31.00;56.60
63219;DHT22;49320;52.512;13.448;2023-06-26T08:41:32;31.00;56.40
63219;DHT22;49320;52.512;13.448;2023-06-26T08:43:59;31.00;56.10
63219;DHT22;49320;52.512;13.448;2023-06-26T08:46:26;31.10;55.90
63219;DHT22;49320;52.512;13.448;2023-06-26T08:48:56;31.10;56.00
63219;DHT22;49320;52.512;13.448;2023-06-26T08:51:28;31.10;56.10
63219;DHT22;49320;52.512;13.448;2023-06-26T08:53:58;31.10;55.60
63219;DHT22;49320;52.512;13.448;2023-06-26T08:56:37;31.20;55.40
63219;DHT22;49320;52.512;13.448;2023-06-26T08:59:07;31.20;53.60
63219;DHT22;49320;52.512;13.448;2023-06-26T09:01:37;31.30;54.70
63219;DHT22;49320;52.512;13.448;2023-06-26T09:04:04;31.30;54.60
63219;DHT22;49320;52.512;13.448;2023-06-26T09:06:31;31.30;54.40
63219;DHT22;49320;52.512;13.448;2023-06-26T09:08:58;31.40;54.20
63219;DHT22;49320;52.512;13.448;2023-06-26T09:11:25;31.40;54.40
63219;DHT22;49320;52.512;13.448;2023-06-26T09:13:52;31.50;53.30
63219;DHT22;49320;52.512;13.448;2023-06-26T09:16:27;31.50;53.90
63219;DHT22;49320;52.512;13.448;2023-06-26T09:18:55;31.50;53.20
63219;DHT22;49320;52.512;13.448;2023-06-26T09:21:23;31.50;53.70
63219;DHT22;49320;52.512;13.448;2023-06-26T09:23:52;31.60;53.70
63219;DHT22;49320;52.512;13.448;2023-06-26T09:26:21;31.60;53.30
63219;DHT22;49320;52.512;13.448;2023-06-26T09:28:49;31.70;53.30
63219;DHT22;49320;52.512;13.448;2023-06-26T09:31:17;31.80;53.10
63219;DHT22;49320;52.512;13.448;2023-06-26T09:34:06;31.80;53.10
63219;DHT22;49320;52.512;13.448;2023-06-26T09:36:33;31.80;52.90
63219;DHT22;49320;52.512;13.448;2023-06-26T09:39:07;31.90;52.80
63219;DHT22;49320;52.512;13.448;2023-06-26T09:41:38;31.90;52.60
63219;DHT22;49320;52.512;13.448;2023-06-26T09:44:11;31.90;52.50
63219;DHT22;49320;52.512;13.448;2023-06-26T09:46:40;31.90;52.30
63219;DHT22;49320;52.512;13.448;2023-06-26T09:49:09;32.00;52.80
63219;DHT22;49320;52.512;13.448;2023-06-26T09:51:41;32.10;52.30
63219;DHT22;49320;52.512;13.448;2023-06-26T09:54:09;32.10;52.40
63219;DHT22;49320;52.512;13.448;2023-06-26T09:56:36;32.10;52.40
63219;DHT22;49320;52.512;13.448;2023-06-26T09:59:04;32.20;52.10
63219;DHT22;49320;52.512;13.448;2023-06-26T10:01:33;32.20;52.00
63219;DHT22;49320;52.512;13.448;2023-06-26T10:04:04;32.20;52.30
63219;DHT22;49320;52.512;13.448;2023-06-26T10:06:33;32.20;52.10
63219;DHT22;49320;52.512;13.448;2023-06-26T10:09:04;32.30;52.10
63219;DHT22;49320;52.512;13.448;2023-06-26T10:11:58;32.30;51.40
63219;DHT22;49320;52.512;13.448;2023-06-26T10:14:36;32.30;49.90
63219;DHT22;49320;52.512;13.448;2023-06-26T10:17:10;32.40;51.00
63219;DHT22;49320;52.512;13.448;2023-06-26T10:19:43;32.40;50.60
63219;DHT22;49320;52.512;13.448;2023-06-26T10:22:17;32.40;51.30
63219;DHT22;49320;52.512;13.448;2023-06-26T10:24:48;32.40;50.70
63219;DHT22;49320;52.512;13.448;2023-06-26T10:27:26;32.40;52.30
63219;DHT22;49320;52.512;13.448;2023-06-26T10:30:00;32.40;50.50
63219;DHT22;49320;52.512;13.448;2023-06-26T10:32:29;32.50;51.70
63219;DHT22;49320;52.512;13.448;2023-06-26T10:34:57;32.60;51.90
63219;DHT22;49320;52.512;13.448;2023-06-26T10:37:44;32.60;51.60
63219;DHT22;49320;52.512;13.448;2023-06-26T10:40:13;32.60;51.70
63219;DHT22;49320;52.512;13.448;2023-06-26T10:42:41;32.50;51.60
63219;DHT22;49320;52.512;13.448;2023-06-26T10:45:16;32.70;51.50
63219;DHT22;49320;52.512;13.448;2023-06-26T10:47:48;32.70;50.50
63219;DHT22;49320;52.512;13.448;2023-06-26T10:50:19;32.80;50.60
63219;DHT22;49320;52.512;13.448;2023-06-26T11:03:40;32.90;49.60
63219;DHT22;49320;52.512;13.448;2023-06-26T11:06:12;32.90;50.40
63219;DHT22;49320;52.512;13.448;2023-06-26T11:08:51;33.00;49.50
63219;DHT22;49320;52.512;13.448;2023-06-26T11:11:22;33.00;48.70
63219;DHT22;49320;52.512;13.448;2023-06-26T11:14:19;33.10;50.10
63219;DHT22;49320;52.512;13.448;2023-06-26T11:16:47;33.10;50.20
63219;DHT22;49320;52.512;13.448;2023-06-26T11:19:17;33.10;50.10
63219;DHT22;49320;52.512;13.448;2023-06-26T11:21:45;33.20;49.80
63219;DHT22;49320;52.512;13.448;2023-06-26T11:24:13;33.10;50.00
63219;DHT22;49320;52.512;13.448;2023-06-26T11:26:41;33.20;49.80
63219;DHT22;49320;52.512;13.448;2023-06-26T11:29:10;33.30;49.50
63219;DHT22;49320;52.512;13.448;2023-06-26T11:31:39;33.30;49.30
63219;DHT22;49320;52.512;13.448;2023-06-26T11:34:10;33.30;49.50
63219;DHT22;49320;52.512;13.448;2023-06-26T11:36:39;33.50;49.50
63219;DHT22;49320;52.512;13.448;2023-06-26T11:39:09;33.50;49.50
63219;DHT22;49320;52.512;13.448;2023-06-26T11:41:38;33.50;49.40
63219;DHT22;49320;52.512;13.448;2023-06-26T11:44:07;33.60;49.20
63219;DHT22;49320;52.512;13.448;2023-06-26T11:46:40;33.60;49.10
63219;DHT22;49320;52.512;13.448;2023-06-26T11:49:07;33.70;49.20
63219;DHT22;49320;52.512;13.448;2023-06-26T11:51:35;33.70;49.10
63219;DHT22;49320;52.512;13.448;2023-06-26T11:54:03;33.80;49.10
63219;DHT22;49320;52.512;13.448;2023-06-26T11:56:31;33.80;48.80
63219;DHT22;49320;52.512;13.448;2023-06-26T12:01:38;33.70;47.60
63219;DHT22;49320;52.512;13.448;2023-06-26T12:04:08;34.00;47.10
63219;DHT22;49320;52.512;13.448;2023-06-26T12:06:39;33.90;48.30
63219;DHT22;49320;52.512;13.448;2023-06-26T12:09:09;34.10;48.20
63219;DHT22;49320;52.512;13.448;2023-06-26T12:11:40;34.10;48.20
63219;DHT22;49320;52.512;13.448;2023-06-26T12:14:09;34.10;48.10
63219;DHT22;49320;52.512;13.448;2023-06-26T12:16:37;34.20;48.40
63219;DHT22;49320;52.512;13.448;2023-06-26T12:19:08;34.20;48.40
63219;DHT22;49320;52.512;13.448;2023-06-26T12:24:08;34.30;47.60
63219;DHT22;49320;52.512;13.448;2023-06-26T12:26:36;34.30;48.10
63219;DHT22;49320;52.512;13.448;2023-06-26T12:29:07;34.30;47.90
63219;DHT22;49320;52.512;13.448;2023-06-26T12:31:46;34.40;47.30
63219;DHT22;49320;52.512;13.448;2023-06-26T12:34:19;34.50;47.70
63219;DHT22;49320;52.512;13.448;2023-06-26T12:36:49;34.60;47.20
63219;DHT22;49320;52.512;13.448;2023-06-26T12:39:20;34.70;48.20
63219;DHT22;49320;52.512;13.448;2023-06-26T12:41:57;34.90;47.20
63219;DHT22;49320;52.512;13.448;2023-06-26T12:44:31;34.90;46.20
63219;DHT22;49320;52.512;13.448;2023-06-26T12:47:01;35.10;47.40
63219;DHT22;49320;52.512;13.448;2023-06-26T12:49:35;35.20;47.40
63219;DHT22;49320;52.512;13.448;2023-06-26T12:52:10;35.30;46.20
63219;DHT22;49320;52.512;13.448;2023-06-26T12:54:40;35.40;46.90
63219;DHT22;49320;52.512;13.448;2023-06-26T12:57:09;35.50;46.50
63219;DHT22;49320;52.512;13.448;2023-06-26T12:59:37;35.50;46.60
63219;DHT22;49320;52.512;13.448;2023-06-26T13:02:05;35.50;46.40
63219;DHT22;49320;52.512;13.448;2023-06-26T13:04:33;35.50;46.30
63219;DHT22;49320;52.512;13.448;2023-06-26T13:06:59;35.50;46.20
63219;DHT22;49320;52.512;13.448;2023-06-26T13:09:26;35.50;46.10
63219;DHT22;49320;52.512;13.448;2023-06-26T13:11:54;35.50;46.00
63219;DHT22;49320;52.512;13.448;2023-06-26T13:14:21;35.50;46.10
63219;DHT22;49320;52.512;13.448;2023-06-26T13:16:48;35.50;46.00
63219;DHT22;49320;52.512;13.448;2023-06-26T13:19:15;35.50;45.80
63219;DHT22;49320;52.512;13.448;2023-06-26T13:21:42;35.50;45.90
63219;DHT22;49320;52.512;13.448;2023-06-26T13:24:09;35.50;45.90
63219;DHT22;49320;52.512;13.448;2023-06-26T13:26:36;35.50;46.00
63219;DHT22;49320;52.512;13.448;2023-06-26T13:29:04;35.40;45.70
63219;DHT22;49320;52.512;13.448;2023-06-26T13:31:32;35.30;45.90
63219;DHT22;49320;52.512;13.448;2023-06-26T13:34:01;35.40;46.10
63219;DHT22;49320;52.512;13.448;2023-06-26T13:36:30;35.30;45.90
63219;DHT22;49320;52.512;13.448;2023-06-26T13:38:57;35.30;46.00
63219;DHT22;49320;52.512;13.448;2023-06-26T13:41:24;35.20;45.90
63219;DHT22;49320;52.512;13.448;2023-06-26T13:43:52;35.20;45.80
63219;DHT22;49320;52.512;13.448;2023-06-26T13:46:24;35.10;45.50
63219;DHT22;49320;52.512;13.448;2023-06-26T13:48:51;35.00;45.20
63219;DHT22;49320;52.512;13.448;2023-06-26T13:51:18;34.90;46.20
63219;DHT22;49320;52.512;13.448;2023-06-26T13:53:45;34.90;46.00
63219;DHT22;49320;52.512;13.448;2023-06-26T13:56:11;34.80;46.10
63219;DHT22;49320;52.512;13.448;2023-06-26T13:58:38;34.70;46.10
63219;DHT22;49320;52.512;13.448;2023-06-26T14:01:06;34.70;46.10
63219;DHT22;49320;52.512;13.448;2023-06-26T14:03:33;34.50;45.90
63219;DHT22;49320;52.512;13.448;2023-06-26T14:06:00;34.50;46.30
63219;DHT22;49320;52.512;13.448;2023-06-26T14:08:27;34.40;46.50
63219;DHT22;49320;52.512;13.448;2023-06-26T14:10:54;34.40;46.70
63219;DHT22;49320;52.512;13.448;2023-06-26T14:13:21;34.40;46.70
63219;DHT22;49320;52.512;13.448;2023-06-26T14:15:49;34.30;46.50
63219;DHT22;49320;52.512;13.448;2023-06-26T14:18:20;34.10;46.30
63219;DHT22;49320;52.512;13.448;2023-06-26T14:20:52;34.10;46.30
63219;DHT22;49320;52.512;13.448;2023-06-26T14:23:20;34.00;46.60
63219;DHT22;49320;52.512;13.448;2023-06-26T14:25:47;33.90;46.10
63219;DHT22;49320;52.512;13.448;2023-06-26T14:28:15;33.80;45.90
63219;DHT22;49320;52.512;13.448;2023-06-26T14:30:42;33.60;45.80
63219;DHT22;49320;52.512;13.448;2023-06-26T14:33:10;33.30;47.70
63219;DHT22;49320;52.512;13.448;2023-06-26T14:35:36;32.80;49.30
63219;DHT22;49320;52.512;13.448;2023-06-26T14:38:03;32.00;49.70
63219;DHT22;49320;52.512;13.448;2023-06-26T14:40:30;31.10;50.90
63219;DHT22;49320;52.512;13.448;2023-06-26T14:42:58;30.00;53.20
63219;DHT22;49320;52.512;13.448;2023-06-26T14:45:25;29.00;56.30
63219;DHT22;49320;52.512;13.448;2023-06-26T14:47:52;28.00;59.10
63219;DHT22;49320;52.512;13.448;2023-06-26T14:50:19;27.10;62.10
63219;DHT22;49320;52.512;13.448;2023-06-26T14:52:46;26.30;65.30
63219;DHT22;49320;52.512;13.448;2023-06-26T14:55:13;25.60;68.00
63219;DHT22;49320;52.512;13.448;2023-06-26T14:57:40;25.00;70.80
63219;DHT22;49320;52.512;13.448;2023-06-26T15:00:07;24.60;73.40
63219;DHT22;49320;52.512;13.448;2023-06-26T15:02:35;24.20;76.20
63219;DHT22;49320;52.512;13.448;2023-06-26T15:05:02;23.90;80.60
63219;DHT22;49320;52.512;13.448;2023-06-26T15:07:29;23.60;86.50
63219;DHT22;49320;52.512;13.448;2023-06-26T15:09:56;23.50;91.00
63219;DHT22;49320;52.512;13.448;2023-06-26T15:12:23;23.30;93.20
63219;DHT22;49320;52.512;13.448;2023-06-26T15:14:50;23.10;94.50
63219;DHT22;49320;52.512;13.448;2023-06-26T15:17:18;23.00;95.70
63219;DHT22;49320;52.512;13.448;2023-06-26T15:19:45;22.90;97.00
63219;DHT22;49320;52.512;13.448;2023-06-26T15:22:12;22.90;97.90
63219;DHT22;49320;52.512;13.448;2023-06-26T15:24:39;22.90;98.70
63219;DHT22;49320;52.512;13.448;2023-06-26T15:27:06;22.70;99.50
63219;DHT22;49320;52.512;13.448;2023-06-26T15:29:34;22.80;99.60
63219;DHT22;49320;52.512;13.448;2023-06-26T15:32:01;22.70;99.90
63219;DHT22;49320;52.512;13.448;2023-06-26T15:34:28;22.70;99.90
63219;DHT22;49320;52.512;13.448;2023-06-26T15:36:55;22.60;99.90
63219;DHT22;49320;52.512;13.448;2023-06-26T15:39:22;22.60;99.90
63219;DHT22;49320;52.512;13.448;2023-06-26T15:41:48;22.60;99.90
63219;DHT22;49320;52.512;13.448;2023-06-26T15:44:15;22.60;99.90
63219;DHT22;49320;52.512;13.448;2023-06-26T15:46:42;22.40;99.90
63219;DHT22;49320;52.512;13.448;2023-06-26T15:49:09;22.40;99.90